Okazaki, Japan
Current Conditions -  °F | °C
As of 7:00 PM on Thursday 29 Jan 2015 (Local Time) from RJGG Reporting Station
Broken Clouds Broken Clouds  
Wind Chill: 43°   Ceiling: 14000
Heat Index: 43°   Visibility: 6mi
Dew Point: 25°   Wind: 3mph
Humidity: 49%   Direction: 300°WNW
Pressure: 30.3"   Gusts: NA
Location:  34.96°N, 137.16°E
Report Text: RJGG 291000Z 30003KT 9999 FEW020 BKN140 06/M04 Q1026 NOSIG
Loading
Personal Weather Stations






























Interactive Weather Map New forecast layout! Learn more

10-Day Weather Forecast

Advertisements
Track Severe Weather on mobile